Hlavní strana
METAR-TAF:

METAR-TAF

Letiště :

Mardin, Turecko

zeměpisná šířka: 37-13-58N, zeměpisná délka: 40-38-26E, výška: 527 m

Aktuální stav počasí

Zpráva byla vytvořena před 27 minutami, v 00:50 UTC
vítr z různých směrů 1 kt
Teplota 7°C
Vlhkost vzduchu 93%
Tlak 1014 hPa
Viditelnost 10 km a více
Polojasno ve výšce 5000 ft
Oblačno až skoro zataženo ve výšce 11000 ft

METAR: LTCR 080050Z VRB01KT 9999 SCT050 BKN110 07/06 Q1014

Čas: 04:17 (01:17 UTC)

Předpověď počasí

Zpráva byla vytvořena před 11 hodinami a 37 minutami, v 13:40 UTC
Předpověď platná od 07 v 15 UTC do 07 v 24 UTC
Severní vítr 7 kt
Viditelnost 10 km a více
Skoro jasno ve výšce 4000 ft
Polojasno ve výšce 10000 ft
Změna
od 07 v 15 UTC do 07 v 18 UTC
Viditelnost 10 km a více
Žádná oblačnost pod 1500 m, nevyskytují se cumulonimby.

TAF: LTCR 071340Z 0715/0724 35007KT 9999 FEW040 SCT100 BECMG 0715/0718 CAVOK

Stav a předpovědi počasí z více než 4 000 letišť (zprávy METAR a TAF).

Červené a žluté tečky na mapě představují dostupné meteorologické stanice.

Když kurzor umístíte na tečku, zobrazí se název stanice.

Pak kliknutím zobrazíte stav a předpověď počasí.

Chcete-li změnit mapu, kliknutím na zelené tlačítko se znaménkem +mapu přiblížíte, kliknutím na zelené tlačítko se znaménkem – mapu oddálíte a kliknutím na zelené šipky přejdete na sousední mapy.


METAR-TAF: